Terminal Aerodrome Forecast
Issued by NWS

Home | Current Version | Previous Version | Graphics & Text | Print | Product List | Glossary On
Versions: 1 2 3 4 5 6 7 8 9 10 11 12
381
FTUS43 KMPX 250520
TAFRWF
TAF
KRWF 250520Z 2506/2606 30010KT P6SM BKN070
     FM251400 31015G23KT P6SM FEW050
     FM260100 30005KT P6SM SCT080=

USA.gov is the U.S. government's official web portal to all federal, state and local government web resources and services.